ロングイェールビーン の空港の天気 - METARとTAF

スヴァールバル空港 ( ENSB / LYR ) - スヴァールバル諸島・ヤンマイエン島 ロングイェールビーン
飛行場実況気象(Metar)
観測時間07/22 01:50 CEST (07/21 23:50 UTC)
風向・風速西 2m/s
視程10km以上
天気現象
全天を覆う雲 雲底高度 370m
気温7℃
湿度81%
気圧1019hPa
METARENSB 212350Z 27003KT 9999 OVC012 07/04 Q1019 RMK WIND 1400FT 24006KT
過去の天気等 Google飛行場航空写真 Wunderground天気予報

過去48時間のMETAR

飛行場予報(TAF)
発表時間: -
22日2時 CEST ~ 22日14時 CEST に一時的に
全天の8割程度の雲 雲底高度 240m
22日8時 CEST ~ 22日20時 CEST に一時的に
風向・風速不定 3m/s
22日2時 CEST ~ 22日23時 CEST に 確率 40% で一時的に
全天の8割程度の雲 雲底高度 550m
22日22時 CEST ~ 23日2時 CEST に一時的に
風向・風速西南西 11m/s
視程4,000m
天気現象雨霧雨 もや
全天の8割程度の雲 雲底高度 120m
TAF ENSB 2200/2224 25012KT 9999 BKN012
TEMPO 2200/2212 BKN008
TEMPO 2206/2218 VRB05KT
PROB40 TEMPO 2200/2221 BKN018
TEMPO 2220/2224 25022KT 4000 RADZ BR BKN004